sensor_id;sensor_type;location;lat;lon;timestamp;P1;durP1;ratioP1;P2;durP2;ratioP2
36191;SDS011;22233;42.708;23.360;2023-05-07T00:00:52;10.45;;;7.07;;
36191;SDS011;22233;42.708;23.360;2023-05-07T00:03:18;13.20;;;7.43;;
36191;SDS011;22233;42.708;23.360;2023-05-07T00:05:45;8.65;;;7.15;;
36191;SDS011;22233;42.708;23.360;2023-05-07T00:08:11;12.75;;;8.40;;
36191;SDS011;22233;42.708;23.360;2023-05-07T00:10:37;9.52;;;7.25;;
36191;SDS011;22233;42.708;23.360;2023-05-07T00:13:02;9.77;;;6.90;;
36191;SDS011;22233;42.708;23.360;2023-05-07T00:15:27;11.90;;;8.45;;
36191;SDS011;22233;42.708;23.360;2023-05-07T00:17:53;9.95;;;8.25;;
36191;SDS011;22233;42.708;23.360;2023-05-07T00:20:18;8.18;;;7.05;;
36191;SDS011;22233;42.708;23.360;2023-05-07T00:22:44;9.75;;;7.20;;
36191;SDS011;22233;42.708;23.360;2023-05-07T00:25:09;12.27;;;8.32;;
36191;SDS011;22233;42.708;23.360;2023-05-07T00:27:35;10.82;;;7.85;;
36191;SDS011;22233;42.708;23.360;2023-05-07T00:30:00;11.32;;;8.18;;
36191;SDS011;22233;42.708;23.360;2023-05-07T00:32:26;12.30;;;7.72;;
36191;SDS011;22233;42.708;23.360;2023-05-07T00:34:51;11.13;;;6.90;;
36191;SDS011;22233;42.708;23.360;2023-05-07T00:37:17;8.20;;;7.22;;
36191;SDS011;22233;42.708;23.360;2023-05-07T00:39:42;8.90;;;6.45;;
36191;SDS011;22233;42.708;23.360;2023-05-07T00:42:08;9.07;;;5.88;;
36191;SDS011;22233;42.708;23.360;2023-05-07T00:44:33;8.23;;;5.50;;
36191;SDS011;22233;42.708;23.360;2023-05-07T00:46:59;8.23;;;6.18;;
36191;SDS011;22233;42.708;23.360;2023-05-07T00:49:29;7.30;;;5.50;;
36191;SDS011;22233;42.708;23.360;2023-05-07T00:52:02;7.78;;;5.20;;
36191;SDS011;22233;42.708;23.360;2023-05-07T00:54:28;6.53;;;4.95;;
36191;SDS011;22233;42.708;23.360;2023-05-07T00:56:53;8.60;;;5.43;;
36191;SDS011;22233;42.708;23.360;2023-05-07T00:59:20;8.07;;;5.82;;
36191;SDS011;22233;42.708;23.360;2023-05-07T01:01:45;9.52;;;5.38;;
36191;SDS011;22233;42.708;23.360;2023-05-07T01:04:10;8.73;;;6.18;;
36191;SDS011;22233;42.708;23.360;2023-05-07T01:06:36;8.48;;;5.75;;
36191;SDS011;22233;42.708;23.360;2023-05-07T01:09:02;9.70;;;6.05;;
36191;SDS011;22233;42.708;23.360;2023-05-07T01:11:29;9.80;;;5.53;;
36191;SDS011;22233;42.708;23.360;2023-05-07T01:13:55;9.13;;;5.28;;
36191;SDS011;22233;42.708;23.360;2023-05-07T01:16:21;8.05;;;4.90;;
36191;SDS011;22233;42.708;23.360;2023-05-07T01:18:47;7.00;;;5.28;;
36191;SDS011;22233;42.708;23.360;2023-05-07T01:21:13;5.72;;;3.97;;
36191;SDS011;22233;42.708;23.360;2023-05-07T01:26:07;7.65;;;4.28;;
36191;SDS011;22233;42.708;23.360;2023-05-07T01:28:32;4.68;;;3.55;;
36191;SDS011;22233;42.708;23.360;2023-05-07T01:31:00;4.75;;;3.53;;
36191;SDS011;22233;42.708;23.360;2023-05-07T01:33:27;8.30;;;4.30;;
36191;SDS011;22233;42.708;23.360;2023-05-07T01:35:56;5.18;;;4.03;;
36191;SDS011;22233;42.708;23.360;2023-05-07T01:38:25;5.28;;;4.00;;
36191;SDS011;22233;42.708;23.360;2023-05-07T01:40:52;4.80;;;4.17;;
36191;SDS011;22233;42.708;23.360;2023-05-07T01:43:18;5.47;;;4.45;;
36191;SDS011;22233;42.708;23.360;2023-05-07T01:45:44;7.65;;;3.90;;
36191;SDS011;22233;42.708;23.360;2023-05-07T01:48:11;6.55;;;3.70;;
36191;SDS011;22233;42.708;23.360;2023-05-07T01:50:38;6.82;;;4.25;;
36191;SDS011;22233;42.708;23.360;2023-05-07T01:53:04;5.55;;;4.05;;
36191;SDS011;22233;42.708;23.360;2023-05-07T01:55:29;6.07;;;4.03;;
36191;SDS011;22233;42.708;23.360;2023-05-07T01:57:55;5.88;;;4.47;;
36191;SDS011;22233;42.708;23.360;2023-05-07T02:00:20;5.75;;;4.72;;
36191;SDS011;22233;42.708;23.360;2023-05-07T02:02:46;7.45;;;4.50;;
36191;SDS011;22233;42.708;23.360;2023-05-07T02:05:11;6.80;;;4.28;;
36191;SDS011;22233;42.708;23.360;2023-05-07T02:07:37;6.47;;;4.45;;
36191;SDS011;22233;42.708;23.360;2023-05-07T02:10:02;6.22;;;4.20;;
36191;SDS011;22233;42.708;23.360;2023-05-07T02:12:28;7.43;;;4.25;;
36191;SDS011;22233;42.708;23.360;2023-05-07T02:14:53;5.93;;;4.70;;
36191;SDS011;22233;42.708;23.360;2023-05-07T02:17:19;6.13;;;4.53;;
36191;SDS011;22233;42.708;23.360;2023-05-07T02:19:45;6.00;;;4.43;;
36191;SDS011;22233;42.708;23.360;2023-05-07T02:22:10;7.88;;;4.80;;
36191;SDS011;22233;42.708;23.360;2023-05-07T02:24:35;6.95;;;4.50;;
36191;SDS011;22233;42.708;23.360;2023-05-07T02:27:01;5.75;;;4.97;;
36191;SDS011;22233;42.708;23.360;2023-05-07T02:29:28;7.10;;;5.10;;
36191;SDS011;22233;42.708;23.360;2023-05-07T02:31:53;5.35;;;4.70;;
36191;SDS011;22233;42.708;23.360;2023-05-07T02:34:19;5.65;;;4.90;;
36191;SDS011;22233;42.708;23.360;2023-05-07T02:36:44;5.78;;;5.18;;
36191;SDS011;22233;42.708;23.360;2023-05-07T02:39:10;5.70;;;4.63;;
36191;SDS011;22233;42.708;23.360;2023-05-07T02:41:36;7.47;;;4.68;;
36191;SDS011;22233;42.708;23.360;2023-05-07T02:44:02;7.22;;;5.50;;
36191;SDS011;22233;42.708;23.360;2023-05-07T02:46:27;8.07;;;5.57;;
36191;SDS011;22233;42.708;23.360;2023-05-07T02:48:53;7.60;;;5.40;;
36191;SDS011;22233;42.708;23.360;2023-05-07T02:51:19;9.27;;;5.88;;
36191;SDS011;22233;42.708;23.360;2023-05-07T02:53:46;7.15;;;5.15;;
36191;SDS011;22233;42.708;23.360;2023-05-07T02:56:12;6.95;;;4.93;;
36191;SDS011;22233;42.708;23.360;2023-05-07T02:58:37;7.40;;;5.75;;
36191;SDS011;22233;42.708;23.360;2023-05-07T03:01:07;9.02;;;5.53;;
36191;SDS011;22233;42.708;23.360;2023-05-07T03:03:33;6.35;;;5.07;;
36191;SDS011;22233;42.708;23.360;2023-05-07T03:05:59;8.52;;;6.65;;
36191;SDS011;22233;42.708;23.360;2023-05-07T03:08:25;7.60;;;6.22;;
36191;SDS011;22233;42.708;23.360;2023-05-07T03:10:51;9.25;;;6.60;;
36191;SDS011;22233;42.708;23.360;2023-05-07T03:13:16;7.38;;;5.90;;
36191;SDS011;22233;42.708;23.360;2023-05-07T03:15:42;8.35;;;6.72;;
36191;SDS011;22233;42.708;23.360;2023-05-07T03:18:07;11.18;;;7.13;;
36191;SDS011;22233;42.708;23.360;2023-05-07T03:20:33;9.88;;;7.13;;
36191;SDS011;22233;42.708;23.360;2023-05-07T03:22:58;7.68;;;6.75;;
36191;SDS011;22233;42.708;23.360;2023-05-07T03:25:24;11.93;;;8.05;;
36191;SDS011;22233;42.708;23.360;2023-05-07T03:27:49;9.18;;;6.80;;
36191;SDS011;22233;42.708;23.360;2023-05-07T03:30:15;11.38;;;7.22;;
36191;SDS011;22233;42.708;23.360;2023-05-07T03:32:40;9.30;;;7.38;;
36191;SDS011;22233;42.708;23.360;2023-05-07T03:35:06;9.90;;;7.22;;
36191;SDS011;22233;42.708;23.360;2023-05-07T03:37:32;10.35;;;7.25;;
36191;SDS011;22233;42.708;23.360;2023-05-07T03:39:57;11.48;;;6.72;;
36191;SDS011;22233;42.708;23.360;2023-05-07T03:42:23;13.98;;;6.68;;
36191;SDS011;22233;42.708;23.360;2023-05-07T03:44:49;10.32;;;6.55;;
36191;SDS011;22233;42.708;23.360;2023-05-07T03:47:14;7.60;;;6.18;;
36191;SDS011;22233;42.708;23.360;2023-05-07T03:49:40;10.50;;;6.55;;
36191;SDS011;22233;42.708;23.360;2023-05-07T03:52:05;8.63;;;6.90;;
36191;SDS011;22233;42.708;23.360;2023-05-07T03:54:31;9.70;;;6.95;;
36191;SDS011;22233;42.708;23.360;2023-05-07T03:56:56;15.00;;;7.38;;
36191;SDS011;22233;42.708;23.360;2023-05-07T03:59:22;13.57;;;7.72;;
36191;SDS011;22233;42.708;23.360;2023-05-07T04:01:47;12.43;;;7.47;;
36191;SDS011;22233;42.708;23.360;2023-05-07T04:04:14;11.23;;;8.00;;
36191;SDS011;22233;42.708;23.360;2023-05-07T04:06:39;13.15;;;7.85;;
36191;SDS011;22233;42.708;23.360;2023-05-07T04:09:05;13.70;;;8.55;;
36191;SDS011;22233;42.708;23.360;2023-05-07T04:11:31;14.20;;;8.98;;
36191;SDS011;22233;42.708;23.360;2023-05-07T04:13:57;14.07;;;7.43;;
36191;SDS011;22233;42.708;23.360;2023-05-07T04:16:22;12.05;;;8.15;;
36191;SDS011;22233;42.708;23.360;2023-05-07T04:18:47;11.98;;;8.10;;
36191;SDS011;22233;42.708;23.360;2023-05-07T04:21:19;9.07;;;7.13;;
36191;SDS011;22233;42.708;23.360;2023-05-07T04:23:46;10.88;;;8.65;;
36191;SDS011;22233;42.708;23.360;2023-05-07T04:26:12;10.70;;;6.93;;
36191;SDS011;22233;42.708;23.360;2023-05-07T04:28:38;10.65;;;6.88;;
36191;SDS011;22233;42.708;23.360;2023-05-07T04:31:04;8.88;;;6.53;;
36191;SDS011;22233;42.708;23.360;2023-05-07T04:33:30;11.48;;;7.88;;
36191;SDS011;22233;42.708;23.360;2023-05-07T04:35:56;10.95;;;6.70;;
36191;SDS011;22233;42.708;23.360;2023-05-07T04:38:22;10.15;;;6.85;;
36191;SDS011;22233;42.708;23.360;2023-05-07T04:40:48;8.85;;;7.10;;
36191;SDS011;22233;42.708;23.360;2023-05-07T04:43:14;11.25;;;7.00;;
36191;SDS011;22233;42.708;23.360;2023-05-07T04:45:39;9.70;;;7.32;;
36191;SDS011;22233;42.708;23.360;2023-05-07T04:48:06;10.93;;;7.40;;
36191;SDS011;22233;42.708;23.360;2023-05-07T04:50:32;22.88;;;7.93;;
36191;SDS011;22233;42.708;23.360;2023-05-07T04:52:57;9.68;;;7.40;;
36191;SDS011;22233;42.708;23.360;2023-05-07T04:55:23;9.15;;;7.30;;
36191;SDS011;22233;42.708;23.360;2023-05-07T04:57:48;8.95;;;8.00;;
36191;SDS011;22233;42.708;23.360;2023-05-07T05:00:14;9.55;;;7.40;;
36191;SDS011;22233;42.708;23.360;2023-05-07T05:02:40;9.43;;;7.63;;
36191;SDS011;22233;42.708;23.360;2023-05-07T05:05:06;10.80;;;7.53;;
36191;SDS011;22233;42.708;23.360;2023-05-07T05:07:32;12.15;;;8.38;;
36191;SDS011;22233;42.708;23.360;2023-05-07T05:09:57;10.25;;;8.05;;
36191;SDS011;22233;42.708;23.360;2023-05-07T05:12:23;11.73;;;8.40;;
36191;SDS011;22233;42.708;23.360;2023-05-07T05:14:49;11.73;;;8.18;;
36191;SDS011;22233;42.708;23.360;2023-05-07T05:17:14;10.95;;;8.07;;
36191;SDS011;22233;42.708;23.360;2023-05-07T05:19:40;9.88;;;8.02;;
36191;SDS011;22233;42.708;23.360;2023-05-07T05:22:05;10.90;;;8.43;;
36191;SDS011;22233;42.708;23.360;2023-05-07T05:24:31;12.63;;;7.95;;
36191;SDS011;22233;42.708;23.360;2023-05-07T05:26:57;15.88;;;8.07;;
36191;SDS011;22233;42.708;23.360;2023-05-07T05:29:22;8.95;;;7.63;;
36191;SDS011;22233;42.708;23.360;2023-05-07T05:31:48;10.18;;;7.53;;
36191;SDS011;22233;42.708;23.360;2023-05-07T05:34:13;9.45;;;7.47;;
36191;SDS011;22233;42.708;23.360;2023-05-07T05:36:38;8.15;;;7.13;;
36191;SDS011;22233;42.708;23.360;2023-05-07T05:39:04;10.88;;;7.05;;
36191;SDS011;22233;42.708;23.360;2023-05-07T05:41:29;11.50;;;7.75;;
36191;SDS011;22233;42.708;23.360;2023-05-07T05:43:55;9.57;;;7.40;;
36191;SDS011;22233;42.708;23.360;2023-05-07T05:46:21;12.30;;;8.15;;
36191;SDS011;22233;42.708;23.360;2023-05-07T05:48:46;11.50;;;7.40;;
36191;SDS011;22233;42.708;23.360;2023-05-07T05:51:12;12.02;;;7.75;;
36191;SDS011;22233;42.708;23.360;2023-05-07T05:53:37;9.77;;;7.50;;
36191;SDS011;22233;42.708;23.360;2023-05-07T05:56:03;10.13;;;7.68;;
36191;SDS011;22233;42.708;23.360;2023-05-07T05:58:29;11.45;;;8.35;;
36191;SDS011;22233;42.708;23.360;2023-05-07T06:00:54;8.88;;;7.28;;
36191;SDS011;22233;42.708;23.360;2023-05-07T06:03:20;11.73;;;7.85;;
36191;SDS011;22233;42.708;23.360;2023-05-07T06:05:45;10.50;;;7.57;;
36191;SDS011;22233;42.708;23.360;2023-05-07T06:08:11;8.77;;;7.57;;
36191;SDS011;22233;42.708;23.360;2023-05-07T06:10:37;11.95;;;9.05;;
36191;SDS011;22233;42.708;23.360;2023-05-07T06:13:02;9.88;;;7.55;;
36191;SDS011;22233;42.708;23.360;2023-05-07T06:15:27;8.73;;;7.38;;
36191;SDS011;22233;42.708;23.360;2023-05-07T06:17:53;11.45;;;7.70;;
36191;SDS011;22233;42.708;23.360;2023-05-07T06:20:20;10.98;;;7.13;;
36191;SDS011;22233;42.708;23.360;2023-05-07T06:22:46;10.57;;;7.40;;
36191;SDS011;22233;42.708;23.360;2023-05-07T06:25:11;12.48;;;8.50;;
36191;SDS011;22233;42.708;23.360;2023-05-07T06:27:37;12.63;;;8.00;;
36191;SDS011;22233;42.708;23.360;2023-05-07T06:30:04;11.60;;;8.30;;
36191;SDS011;22233;42.708;23.360;2023-05-07T06:32:30;14.85;;;8.52;;
36191;SDS011;22233;42.708;23.360;2023-05-07T06:34:56;12.20;;;8.75;;
36191;SDS011;22233;42.708;23.360;2023-05-07T06:37:21;11.93;;;7.93;;
36191;SDS011;22233;42.708;23.360;2023-05-07T06:39:46;10.93;;;7.72;;
36191;SDS011;22233;42.708;23.360;2023-05-07T06:42:12;12.73;;;7.97;;
36191;SDS011;22233;42.708;23.360;2023-05-07T06:44:37;9.10;;;7.22;;
36191;SDS011;22233;42.708;23.360;2023-05-07T06:47:03;13.93;;;8.02;;
36191;SDS011;22233;42.708;23.360;2023-05-07T06:49:28;10.95;;;7.93;;
36191;SDS011;22233;42.708;23.360;2023-05-07T06:51:54;13.35;;;7.55;;
36191;SDS011;22233;42.708;23.360;2023-05-07T06:54:19;10.35;;;7.88;;
36191;SDS011;22233;42.708;23.360;2023-05-07T06:56:45;10.60;;;7.95;;
36191;SDS011;22233;42.708;23.360;2023-05-07T06:59:11;13.82;;;8.45;;
36191;SDS011;22233;42.708;23.360;2023-05-07T07:01:36;8.65;;;7.68;;
36191;SDS011;22233;42.708;23.360;2023-05-07T07:04:02;9.73;;;7.57;;
36191;SDS011;22233;42.708;23.360;2023-05-07T07:06:28;10.95;;;8.13;;
36191;SDS011;22233;42.708;23.360;2023-05-07T07:08:53;10.20;;;7.00;;
36191;SDS011;22233;42.708;23.360;2023-05-07T07:11:18;9.65;;;7.25;;
36191;SDS011;22233;42.708;23.360;2023-05-07T07:13:44;10.10;;;7.50;;
36191;SDS011;22233;42.708;23.360;2023-05-07T07:16:10;11.80;;;7.93;;
36191;SDS011;22233;42.708;23.360;2023-05-07T07:18:35;9.63;;;7.35;;
36191;SDS011;22233;42.708;23.360;2023-05-07T07:21:01;8.88;;;6.93;;
36191;SDS011;22233;42.708;23.360;2023-05-07T07:23:26;12.02;;;7.45;;
36191;SDS011;22233;42.708;23.360;2023-05-07T07:25:51;11.55;;;8.13;;
36191;SDS011;22233;42.708;23.360;2023-05-07T07:28:17;8.77;;;7.75;;
36191;SDS011;22233;42.708;23.360;2023-05-07T07:30:42;9.32;;;6.97;;
36191;SDS011;22233;42.708;23.360;2023-05-07T07:33:09;8.82;;;7.43;;
36191;SDS011;22233;42.708;23.360;2023-05-07T07:35:34;8.68;;;7.30;;
36191;SDS011;22233;42.708;23.360;2023-05-07T07:38:00;11.52;;;7.50;;
36191;SDS011;22233;42.708;23.360;2023-05-07T07:40:26;10.10;;;6.70;;
36191;SDS011;22233;42.708;23.360;2023-05-07T07:42:52;8.30;;;6.15;;
36191;SDS011;22233;42.708;23.360;2023-05-07T07:45:18;9.63;;;6.78;;
36191;SDS011;22233;42.708;23.360;2023-05-07T07:47:44;7.13;;;6.05;;
36191;SDS011;22233;42.708;23.360;2023-05-07T07:50:10;9.70;;;7.93;;
36191;SDS011;22233;42.708;23.360;2023-05-07T07:52:35;7.57;;;6.28;;
36191;SDS011;22233;42.708;23.360;2023-05-07T07:55:01;8.80;;;6.63;;
36191;SDS011;22233;42.708;23.360;2023-05-07T07:57:26;7.85;;;6.32;;
36191;SDS011;22233;42.708;23.360;2023-05-07T07:59:52;11.20;;;6.20;;
36191;SDS011;22233;42.708;23.360;2023-05-07T08:02:17;9.52;;;6.53;;
36191;SDS011;22233;42.708;23.360;2023-05-07T08:04:43;9.27;;;5.70;;
36191;SDS011;22233;42.708;23.360;2023-05-07T08:07:09;7.82;;;5.88;;
36191;SDS011;22233;42.708;23.360;2023-05-07T08:09:35;7.55;;;5.82;;
36191;SDS011;22233;42.708;23.360;2023-05-07T08:12:02;8.77;;;5.57;;
36191;SDS011;22233;42.708;23.360;2023-05-07T08:14:27;8.48;;;5.55;;
36191;SDS011;22233;42.708;23.360;2023-05-07T08:16:53;7.13;;;6.07;;
36191;SDS011;22233;42.708;23.360;2023-05-07T08:19:19;10.52;;;5.88;;
36191;SDS011;22233;42.708;23.360;2023-05-07T08:21:45;12.02;;;6.13;;
36191;SDS011;22233;42.708;23.360;2023-05-07T08:24:12;8.73;;;5.60;;
36191;SDS011;22233;42.708;23.360;2023-05-07T08:26:41;7.50;;;5.85;;
36191;SDS011;22233;42.708;23.360;2023-05-07T08:29:08;10.40;;;5.75;;
36191;SDS011;22233;42.708;23.360;2023-05-07T08:31:34;9.00;;;5.85;;
36191;SDS011;22233;42.708;23.360;2023-05-07T08:33:59;8.13;;;5.85;;
36191;SDS011;22233;42.708;23.360;2023-05-07T08:36:25;6.85;;;5.10;;
36191;SDS011;22233;42.708;23.360;2023-05-07T08:38:51;9.38;;;5.72;;
36191;SDS011;22233;42.708;23.360;2023-05-07T08:41:17;7.75;;;5.32;;
36191;SDS011;22233;42.708;23.360;2023-05-07T08:43:42;12.45;;;5.22;;
36191;SDS011;22233;42.708;23.360;2023-05-07T08:46:12;6.85;;;5.22;;
36191;SDS011;22233;42.708;23.360;2023-05-07T08:48:43;6.03;;;4.80;;
36191;SDS011;22233;42.708;23.360;2023-05-07T08:51:12;6.72;;;4.47;;
36191;SDS011;22233;42.708;23.360;2023-05-07T08:53:40;7.97;;;4.57;;
36191;SDS011;22233;42.708;23.360;2023-05-07T08:56:06;6.15;;;4.28;;
36191;SDS011;22233;42.708;23.360;2023-05-07T08:58:33;5.60;;;3.92;;
36191;SDS011;22233;42.708;23.360;2023-05-07T09:00:59;7.47;;;4.85;;
36191;SDS011;22233;42.708;23.360;2023-05-07T09:03:28;5.55;;;4.05;;
36191;SDS011;22233;42.708;23.360;2023-05-07T09:05:55;4.55;;;3.70;;
36191;SDS011;22233;42.708;23.360;2023-05-07T09:08:23;4.80;;;4.10;;
36191;SDS011;22233;42.708;23.360;2023-05-07T09:10:50;4.25;;;3.55;;
36191;SDS011;22233;42.708;23.360;2023-05-07T09:13:15;5.63;;;3.63;;
36191;SDS011;22233;42.708;23.360;2023-05-07T09:18:08;4.50;;;3.25;;
36191;SDS011;22233;42.708;23.360;2023-05-07T09:20:33;4.80;;;3.08;;
36191;SDS011;22233;42.708;23.360;2023-05-07T09:25:29;4.13;;;3.13;;
36191;SDS011;22233;42.708;23.360;2023-05-07T09:27:56;5.18;;;3.60;;
36191;SDS011;22233;42.708;23.360;2023-05-07T09:30:22;5.00;;;3.75;;
36191;SDS011;22233;42.708;23.360;2023-05-07T09:32:47;4.68;;;3.67;;
36191;SDS011;22233;42.708;23.360;2023-05-07T09:35:16;5.13;;;3.50;;
36191;SDS011;22233;42.708;23.360;2023-05-07T09:37:42;6.03;;;3.28;;
36191;SDS011;22233;42.708;23.360;2023-05-07T09:40:07;4.75;;;3.40;;
36191;SDS011;22233;42.708;23.360;2023-05-07T09:42:36;3.65;;;3.17;;
36191;SDS011;22233;42.708;23.360;2023-05-07T09:45:04;3.13;;;2.83;;
36191;SDS011;22233;42.708;23.360;2023-05-07T09:47:31;4.18;;;2.55;;
36191;SDS011;22233;42.708;23.360;2023-05-07T09:50:01;5.72;;;3.17;;
36191;SDS011;22233;42.708;23.360;2023-05-07T09:52:30;3.85;;;3.42;;
36191;SDS011;22233;42.708;23.360;2023-05-07T09:54:58;3.15;;;2.67;;
36191;SDS011;22233;42.708;23.360;2023-05-07T09:57:25;3.28;;;2.60;;
36191;SDS011;22233;42.708;23.360;2023-05-07T09:59:52;4.43;;;2.20;;
36191;SDS011;22233;42.708;23.360;2023-05-07T10:02:20;3.35;;;2.17;;
36191;SDS011;22233;42.708;23.360;2023-05-07T10:04:47;2.17;;;1.98;;
36191;SDS011;22233;42.708;23.360;2023-05-07T10:07:14;4.00;;;2.10;;
36191;SDS011;22233;42.708;23.360;2023-05-07T10:09:41;4.28;;;2.60;;
36191;SDS011;22233;42.708;23.360;2023-05-07T10:12:08;4.13;;;2.45;;
36191;SDS011;22233;42.708;23.360;2023-05-07T10:14:34;2.35;;;2.15;;
36191;SDS011;22233;42.708;23.360;2023-05-07T10:17:01;3.90;;;2.47;;
36191;SDS011;22233;42.708;23.360;2023-05-07T10:19:27;5.82;;;2.92;;
36191;SDS011;22233;42.708;23.360;2023-05-07T10:21:55;3.92;;;2.50;;
36191;SDS011;22233;42.708;23.360;2023-05-07T10:24:27;3.35;;;2.72;;
36191;SDS011;22233;42.708;23.360;2023-05-07T10:26:57;5.95;;;2.72;;
36191;SDS011;22233;42.708;23.360;2023-05-07T10:35:04;3.58;;;2.88;;
36191;SDS011;22233;42.708;23.360;2023-05-07T10:37:35;4.07;;;2.30;;
36191;SDS011;22233;42.708;23.360;2023-05-07T10:40:01;2.88;;;2.40;;
36191;SDS011;22233;42.708;23.360;2023-05-07T10:42:27;2.60;;;2.00;;
36191;SDS011;22233;42.708;23.360;2023-05-07T10:44:53;3.95;;;2.10;;
36191;SDS011;22233;42.708;23.360;2023-05-07T10:47:18;3.25;;;2.17;;
36191;SDS011;22233;42.708;23.360;2023-05-07T10:52:22;5.28;;;2.55;;
36191;SDS011;22233;42.708;23.360;2023-05-07T10:55:36;3.33;;;2.45;;
36191;SDS011;22233;42.708;23.360;2023-05-07T10:57:43;3.47;;;2.55;;
36191;SDS011;22233;42.708;23.360;2023-05-07T11:05:24;3.00;;;2.05;;
36191;SDS011;22233;42.708;23.360;2023-05-07T11:07:53;3.03;;;2.50;;
36191;SDS011;22233;42.708;23.360;2023-05-07T11:10:48;4.47;;;2.63;;
36191;SDS011;22233;42.708;23.360;2023-05-07T11:13:15;4.17;;;2.30;;
36191;SDS011;22233;42.708;23.360;2023-05-07T11:15:42;2.83;;;2.50;;
36191;SDS011;22233;42.708;23.360;2023-05-07T11:18:09;3.03;;;2.08;;
36191;SDS011;22233;42.708;23.360;2023-05-07T11:26:02;2.88;;;1.70;;
36191;SDS011;22233;42.708;23.360;2023-05-07T11:28:39;2.60;;;1.90;;
36191;SDS011;22233;42.708;23.360;2023-05-07T11:31:06;4.22;;;2.35;;
36191;SDS011;22233;42.708;23.360;2023-05-07T11:33:32;1.95;;;1.70;;
36191;SDS011;22233;42.708;23.360;2023-05-07T11:35:59;2.70;;;2.05;;
36191;SDS011;22233;42.708;23.360;2023-05-07T11:38:25;2.13;;;1.88;;
36191;SDS011;22233;42.708;23.360;2023-05-07T11:40:51;3.63;;;1.60;;
36191;SDS011;22233;42.708;23.360;2023-05-07T11:43:17;2.33;;;1.70;;
36191;SDS011;22233;42.708;23.360;2023-05-07T11:45:44;4.25;;;1.92;;
36191;SDS011;22233;42.708;23.360;2023-05-07T11:48:11;2.17;;;1.70;;
36191;SDS011;22233;42.708;23.360;2023-05-07T11:50:49;2.80;;;2.17;;
36191;SDS011;22233;42.708;23.360;2023-05-07T11:53:15;2.53;;;2.00;;
36191;SDS011;22233;42.708;23.360;2023-05-07T11:55:42;2.30;;;2.10;;
36191;SDS011;22233;42.708;23.360;2023-05-07T11:58:08;2.28;;;1.75;;
36191;SDS011;22233;42.708;23.360;2023-05-07T12:00:35;6.28;;;2.67;;
36191;SDS011;22233;42.708;23.360;2023-05-07T12:03:04;4.57;;;3.83;;
36191;SDS011;22233;42.708;23.360;2023-05-07T12:05:30;2.85;;;1.98;;
36191;SDS011;22233;42.708;23.360;2023-05-07T12:07:58;1.92;;;1.73;;
36191;SDS011;22233;42.708;23.360;2023-05-07T12:10:23;2.25;;;1.83;;
36191;SDS011;22233;42.708;23.360;2023-05-07T12:12:50;2.22;;;1.83;;
36191;SDS011;22233;42.708;23.360;2023-05-07T12:15:16;3.17;;;1.67;;
36191;SDS011;22233;42.708;23.360;2023-05-07T12:17:42;1.63;;;1.50;;
36191;SDS011;22233;42.708;23.360;2023-05-07T12:20:08;2.47;;;1.63;;
36191;SDS011;22233;42.708;23.360;2023-05-07T12:22:35;2.50;;;1.75;;
36191;SDS011;22233;42.708;23.360;2023-05-07T12:25:01;6.07;;;1.60;;
36191;SDS011;22233;42.708;23.360;2023-05-07T12:27:27;1.73;;;1.55;;
36191;SDS011;22233;42.708;23.360;2023-05-07T12:29:53;2.20;;;1.80;;
36191;SDS011;22233;42.708;23.360;2023-05-07T12:32:19;1.73;;;1.63;;
36191;SDS011;22233;42.708;23.360;2023-05-07T12:34:46;2.17;;;1.65;;
36191;SDS011;22233;42.708;23.360;2023-05-07T12:37:14;2.65;;;1.80;;
36191;SDS011;22233;42.708;23.360;2023-05-07T12:40:02;3.72;;;1.58;;
36191;SDS011;22233;42.708;23.360;2023-05-07T12:42:38;2.53;;;1.42;;
36191;SDS011;22233;42.708;23.360;2023-05-07T12:45:11;2.83;;;1.80;;
36191;SDS011;22233;42.708;23.360;2023-05-07T12:47:38;5.03;;;1.48;;
36191;SDS011;22233;42.708;23.360;2023-05-07T12:50:07;1.60;;;1.50;;
36191;SDS011;22233;42.708;23.360;2023-05-07T12:52:33;1.73;;;1.45;;
36191;SDS011;22233;42.708;23.360;2023-05-07T12:55:08;2.90;;;1.55;;
36191;SDS011;22233;42.708;23.360;2023-05-07T12:57:37;2.78;;;1.80;;
36191;SDS011;22233;42.708;23.360;2023-05-07T13:00:33;2.10;;;1.58;;
36191;SDS011;22233;42.708;23.360;2023-05-07T13:02:59;3.38;;;1.58;;
36191;SDS011;22233;42.708;23.360;2023-05-07T13:05:24;1.70;;;1.60;;
36191;SDS011;22233;42.708;23.360;2023-05-07T13:07:53;2.15;;;1.50;;
36191;SDS011;22233;42.708;23.360;2023-05-07T13:10:19;3.85;;;1.80;;
36191;SDS011;22233;42.708;23.360;2023-05-07T13:12:45;1.70;;;1.60;;
36191;SDS011;22233;42.708;23.360;2023-05-07T13:15:10;2.35;;;1.67;;
36191;SDS011;22233;42.708;23.360;2023-05-07T13:17:36;2.95;;;1.67;;
36191;SDS011;22233;42.708;23.360;2023-05-07T13:20:01;2.92;;;1.80;;
36191;SDS011;22233;42.708;23.360;2023-05-07T13:22:26;2.72;;;1.80;;
36191;SDS011;22233;42.708;23.360;2023-05-07T13:24:52;2.58;;;1.70;;
36191;SDS011;22233;42.708;23.360;2023-05-07T13:27:17;3.00;;;1.63;;
36191;SDS011;22233;42.708;23.360;2023-05-07T13:29:44;2.33;;;1.55;;
36191;SDS011;22233;42.708;23.360;2023-05-07T13:32:09;1.63;;;1.35;;
36191;SDS011;22233;42.708;23.360;2023-05-07T13:34:35;2.90;;;2.15;;
36191;SDS011;22233;42.708;23.360;2023-05-07T13:37:01;2.35;;;1.70;;
36191;SDS011;22233;42.708;23.360;2023-05-07T13:39:27;4.07;;;1.73;;
36191;SDS011;22233;42.708;23.360;2023-05-07T13:41:52;2.63;;;1.70;;
36191;SDS011;22233;42.708;23.360;2023-05-07T13:44:18;1.95;;;1.50;;
36191;SDS011;22233;42.708;23.360;2023-05-07T13:46:43;2.78;;;1.67;;
36191;SDS011;22233;42.708;23.360;2023-05-07T13:49:08;2.75;;;1.65;;
36191;SDS011;22233;42.708;23.360;2023-05-07T13:54:01;3.17;;;1.67;;
36191;SDS011;22233;42.708;23.360;2023-05-07T13:56:26;2.15;;;1.77;;
36191;SDS011;22233;42.708;23.360;2023-05-07T13:58:53;2.58;;;1.70;;
36191;SDS011;22233;42.708;23.360;2023-05-07T14:01:18;1.80;;;1.60;;
36191;SDS011;22233;42.708;23.360;2023-05-07T14:03:44;5.03;;;2.20;;
36191;SDS011;22233;42.708;23.360;2023-05-07T14:06:09;2.45;;;2.13;;
36191;SDS011;22233;42.708;23.360;2023-05-07T14:08:35;2.08;;;1.70;;
36191;SDS011;22233;42.708;23.360;2023-05-07T14:11:00;3.20;;;1.38;;
36191;SDS011;22233;42.708;23.360;2023-05-07T14:13:25;2.30;;;2.10;;
36191;SDS011;22233;42.708;23.360;2023-05-07T14:15:51;3.47;;;1.88;;
36191;SDS011;22233;42.708;23.360;2023-05-07T14:18:17;2.72;;;1.55;;
36191;SDS011;22233;42.708;23.360;2023-05-07T14:20:42;3.20;;;2.08;;
36191;SDS011;22233;42.708;23.360;2023-05-07T14:23:12;2.55;;;2.00;;
36191;SDS011;22233;42.708;23.360;2023-05-07T14:25:38;3.05;;;2.28;;
36191;SDS011;22233;42.708;23.360;2023-05-07T14:28:03;2.97;;;2.15;;
36191;SDS011;22233;42.708;23.360;2023-05-07T14:30:28;3.22;;;2.60;;
36191;SDS011;22233;42.708;23.360;2023-05-07T14:32:54;3.03;;;2.33;;
36191;SDS011;22233;42.708;23.360;2023-05-07T14:35:19;2.67;;;1.70;;
36191;SDS011;22233;42.708;23.360;2023-05-07T14:37:45;5.57;;;2.42;;
36191;SDS011;22233;42.708;23.360;2023-05-07T14:40:10;4.00;;;2.70;;
36191;SDS011;22233;42.708;23.360;2023-05-07T14:42:36;4.35;;;2.22;;
36191;SDS011;22233;42.708;23.360;2023-05-07T14:45:01;3.97;;;2.58;;
36191;SDS011;22233;42.708;23.360;2023-05-07T14:47:27;3.00;;;2.15;;
36191;SDS011;22233;42.708;23.360;2023-05-07T14:49:52;1.75;;;1.63;;
36191;SDS011;22233;42.708;23.360;2023-05-07T14:52:19;2.95;;;2.15;;
36191;SDS011;22233;42.708;23.360;2023-05-07T14:54:44;2.17;;;1.70;;